Time;durP1;ratioP1;P1;durP2;ratioP2;P2;SDS_P1;SDS_P2;PMS_P1;PMS_P2;Temp;Humidity;BMP_temperature;BMP_pressure;BME280_temperature;BME280_humidity;BME280_pressure;Samples;Min_cycle;Max_cycle;Signal;HPM_P1;HPM_P2
2022/05/03 00:01:57;;;;;;;6.20;4.35;;;;;;;13.20;100.00;98069.78;6267484;22;20156;-56
2022/05/03 00:04:49;;;;;;;5.40;4.90;;;;;;;13.32;100.00;98079.97;6269061;22;20194;-55
2022/05/03 00:07:53;;;;;;;6.50;4.68;;;;;;;13.14;100.00;98075.50;6268957;22;20203;-56
2022/05/03 00:10:45;;;;;;;5.38;4.88;;;;;;;13.00;100.00;98073.25;6250408;22;20182;-56
2022/05/03 00:13:17;;;;;;;5.53;4.53;;;;;;;13.09;100.00;98078.50;6253704;22;20157;-56
2022/05/03 00:15:43;;;;;;;6.45;5.10;;;;;;;12.86;100.00;98076.13;6256790;22;20203;-56
2022/05/03 00:18:09;;;;;;;8.40;5.47;;;;;;;12.72;100.00;98068.66;6265305;22;20586;-55
2022/05/03 00:20:35;;;;;;;6.70;5.05;;;;;;;12.83;100.00;98066.00;6271115;22;20152;-55
2022/05/03 00:23:02;;;;;;;5.85;5.25;;;;;;;12.69;100.00;98074.09;6271036;22;20206;-56
2022/05/03 00:25:29;;;;;;;6.18;5.57;;;;;;;12.83;100.00;98066.00;6271025;22;20256;-55
2022/05/03 00:27:54;;;;;;;5.43;4.70;;;;;;;12.96;100.00;98066.66;6271304;22;20244;-56
2022/05/03 00:30:20;;;;;;;6.00;5.05;;;;;;;12.96;100.00;98066.66;6271360;22;20180;-56
2022/05/03 00:32:47;;;;;;;6.18;5.07;;;;;;;12.79;100.00;98064.59;6266089;22;20160;-56
2022/05/03 00:35:15;;;;;;;8.05;6.40;;;;;;;12.93;100.00;98072.06;6255284;22;20156;-56
2022/05/03 00:37:41;;;;;;;8.98;6.35;;;;;;;12.93;100.00;98066.84;6259808;22;20156;-56
2022/05/03 00:40:21;;;;;;;7.25;5.20;;;;;;;12.96;100.00;98059.66;6269507;22;20153;-56
2022/05/03 00:43:02;;;;;;;6.75;4.80;;;;;;;13.08;100.00;98066.44;6271329;22;20318;-56
2022/05/03 00:45:39;;;;;;;6.03;5.45;;;;;;;13.04;100.00;98069.41;6270746;22;20164;-56
2022/05/03 00:48:39;;;;;;;5.50;5.00;;;;;;;13.03;100.00;98068.63;6269353;22;20171;-56
2022/05/03 00:51:08;;;;;;;9.38;5.85;;;;;;;12.66;100.00;98057.00;6270473;22;20137;-56
2022/05/03 00:53:44;;;;;;;9.38;6.75;;;;;;;12.44;100.00;98069.25;6265756;22;20183;-56
2022/05/03 00:56:30;;;;;;;9.73;6.90;;;;;;;12.40;100.00;98065.25;6257139;22;20148;-56
2022/05/03 00:59:16;;;;;;;6.20;5.63;;;;;;;12.59;100.00;98057.63;6259800;22;20587;-56
2022/05/03 01:01:54;;;;;;;7.07;5.90;;;;;;;12.47;100.00;98053.44;6270702;22;20148;-56
2022/05/03 01:04:53;;;;;;;7.55;6.35;;;;;;;12.45;100.00;98052.75;6269063;22;20147;-55
2022/05/03 01:07:33;;;;;;;10.80;6.93;;;;;;;12.59;100.00;98049.81;6270547;22;20503;-56
2022/05/03 01:10:24;;;;;;;8.23;6.68;;;;;;;12.68;100.00;98055.09;6270533;22;20137;-55
2022/05/03 01:13:02;;;;;;;5.95;5.45;;;;;;;12.88;100.00;98043.88;6262133;22;20598;-56
2022/05/03 01:15:39;;;;;;;8.88;5.88;;;;;;;12.91;100.00;98048.84;6259670;22;20572;-56
2022/05/03 01:18:10;;;;;;;9.63;6.38;;;;;;;12.78;100.00;98047.38;6257590;22;20618;-56
2022/05/03 01:20:50;;;;;;;6.68;6.03;;;;;;;12.68;100.00;98046.50;6262789;22;20163;-56
2022/05/03 01:23:53;;;;;;;7.20;6.38;;;;;;;12.33;100.00;98044.19;6270356;22;20147;-56
2022/05/03 01:26:55;;;;;;;8.20;5.93;;;;;;;12.29;100.00;98049.75;6270401;22;20172;-58
2022/05/03 01:29:21;;;;;;;9.20;6.38;;;;;;;12.29;100.00;98041.97;6270294;22;20217;-59
2022/05/03 01:31:53;;;;;;;6.60;5.80;;;;;;;12.45;100.00;98047.56;6270241;22;20149;-56
2022/05/03 01:34:19;;;;;;;7.13;6.43;;;;;;;12.41;100.00;98048.75;6270768;22;20144;-55
2022/05/03 01:37:04;;;;;;;8.50;6.88;;;;;;;12.14;100.00;98045.81;6260086;22;20681;-55
2022/05/03 01:39:39;;;;;;;8.55;7.10;;;;;;;12.20;100.00;98040.13;6257340;22;20148;-56
2022/05/03 01:42:15;;;;;;;7.68;6.05;;;;;;;12.22;100.00;98036.47;6262854;22;20163;-56
2022/05/03 01:44:53;;;;;;;8.05;7.25;;;;;;;12.22;100.00;98046.00;6270304;22;20191;-55
2022/05/03 01:47:30;;;;;;;8.68;6.80;;;;;;;12.36;100.00;98043.94;6270081;22;20175;-56
2022/05/03 01:50:21;;;;;;;9.00;7.03;;;;;;;12.26;100.00;98044.81;6269571;22;20136;-55
2022/05/03 01:52:55;;;;;;;9.45;6.88;;;;;;;12.26;100.00;98044.81;6270212;22;20132;-55
2022/05/03 01:55:59;;;;;;;9.63;6.43;;;;;;;12.38;100.00;98051.59;6270526;22;20184;-55
2022/05/03 01:58:32;;;;;;;10.40;5.88;;;;;;;12.43;100.00;98046.88;6256875;22;20550;-56
2022/05/03 02:01:25;;;;;;;6.60;5.85;;;;;;;12.16;100.00;98043.91;6257856;22;20550;-56
2022/05/03 02:04:02;;;;;;;9.90;5.97;;;;;;;12.18;100.00;98048.03;6248492;22;20259;-56
2022/05/03 02:06:46;;;;;;;6.28;5.40;;;;;;;12.05;100.00;98044.78;6270307;22;20160;-56
2022/05/03 02:09:11;;;;;;;7.82;6.32;;;;;;;11.97;100.00;98048.94;6269757;22;20128;-56
2022/05/03 02:11:56;;;;;;;7.70;6.32;;;;;;;12.01;100.00;98050.34;6270060;22;20148;-56
2022/05/03 02:14:46;;;;;;;7.18;6.47;;;;;;;11.90;100.00;98052.97;6270301;22;20505;-55
2022/05/03 02:17:44;;;;;;;8.48;6.40;;;;;;;11.88;100.00;98052.22;6269854;22;20203;-55
2022/05/03 02:20:38;;;;;;;8.40;6.50;;;;;;;11.80;100.00;98057.22;6255913;22;20145;-56
2022/05/03 02:23:24;;;;;;;6.32;5.72;;;;;;;11.75;100.00;98059.34;6244559;22;20478;-55
2022/05/03 02:26:13;;;;;;;7.82;5.95;;;;;;;11.72;100.00;98057.00;6269808;22;20196;-56
2022/05/03 02:28:41;;;;;;;9.73;5.80;;;;;;;11.58;100.00;98057.22;6268192;22;20190;-55
2022/05/03 02:31:12;;;;;;;6.57;5.45;;;;;;;11.61;100.00;98054.44;6269878;22;20153;-56
2022/05/03 02:33:48;;;;;;;7.68;5.50;;;;;;;11.53;100.00;98061.94;6269885;22;20137;-55
2022/05/03 02:36:21;;;;;;;7.07;6.30;;;;;;;11.57;100.00;98063.34;6269819;22;20132;-56
2022/05/03 02:39:14;;;;;;;6.30;5.68;;;;;;;11.66;100.00;98063.47;6266973;22;20132;-56
2022/05/03 02:41:41;;;;;;;7.60;5.13;;;;;;;11.60;100.00;98055.34;6256443;22;20141;-55
2022/05/03 02:44:07;;;;;;;7.55;4.90;;;;;;;11.53;100.00;98067.09;6258581;22;20148;-55
2022/05/03 02:46:53;;;;;;;6.78;5.60;;;;;;;11.52;100.00;98063.72;6268643;22;20228;-55
2022/05/03 02:49:24;;;;;;;7.72;6.03;;;;;;;11.56;100.00;98064.28;6269742;22;20137;-55
2022/05/03 02:52:35;;;;;;;5.30;4.85;;;;;;;11.61;100.00;98073.38;6269831;22;20177;-55
2022/05/03 02:55:04;;;;;;;6.57;4.90;;;;;;;11.58;100.00;98070.16;6269443;22;20145;-55
2022/05/03 02:57:50;;;;;;;6.43;5.05;;;;;;;11.42;100.00;98073.13;6269564;22;20594;-55
2022/05/03 03:03:41;;;;;;;5.38;4.90;;;;;;;11.17;100.00;98083.72;6256785;22;20195;-56
2022/05/03 03:06:19;;;;;;;7.43;5.85;;;;;;;11.35;100.00;98081.47;6261826;22;20187;-56
2022/05/03 03:08:45;;;;;;;5.88;5.30;;;;;;;11.46;100.00;98078.91;6269672;22;20501;-58
2022/05/03 03:11:22;;;;;;;6.68;5.45;;;;;;;11.52;100.00;98086.19;6269454;22;20145;-57
2022/05/03 03:14:08;;;;;;;7.85;4.90;;;;;;;11.64;100.00;98093.03;6269544;22;20189;-57
2022/05/03 03:16:40;;;;;;;5.68;5.13;;;;;;;11.64;100.00;98093.03;6269140;22;20250;-55
2022/05/03 03:19:49;;;;;;;5.72;5.05;;;;;;;11.64;100.00;98098.22;6269307;22;20157;-56
2022/05/03 03:22:15;;;;;;;7.88;5.30;;;;;;;11.60;100.00;98107.16;6248898;22;20160;-60
2022/05/03 03:24:41;;;;;;;5.47;4.95;;;;;;;11.51;100.00;98107.88;6256408;22;20191;-55
2022/05/03 03:27:10;;;;;;;7.53;5.57;;;;;;;11.43;100.00;98105.06;6260532;22;20207;-56
2022/05/03 03:29:40;;;;;;;8.60;5.35;;;;;;;11.43;100.00;98099.88;6268032;22;20219;-55
2022/05/03 03:32:07;;;;;;;7.10;4.93;;;;;;;11.57;100.00;98112.56;6269095;22;20152;-55
2022/05/03 03:34:34;;;;;;;9.43;5.60;;;;;;;11.27;100.00;98110.53;6269347;22;20590;-55
2022/05/03 03:37:01;;;;;;;7.28;4.80;;;;;;;11.34;100.00;98110.91;6267403;22;20602;-56
2022/05/03 03:39:31;;;;;;;6.60;5.70;;;;;;;11.51;100.00;98113.03;6269183;22;20180;-55
2022/05/03 03:42:05;;;;;;;6.95;4.93;;;;;;;11.72;100.00;98117.41;6266155;22;20156;-55
2022/05/03 03:44:32;;;;;;;6.22;4.95;;;;;;;11.97;100.00;98118.94;6254883;22;20661;-55
2022/05/03 03:47:02;;;;;;;8.65;4.85;;;;;;;12.11;100.00;98116.91;6258103;22;20588;-56
2022/05/03 03:49:29;;;;;;;5.13;4.68;;;;;;;12.19;100.00;98129.25;6267096;22;20629;-55
2022/05/03 03:51:55;;;;;;;4.82;4.32;;;;;;;12.20;100.00;98128.31;6269427;22;20640;-56
2022/05/03 03:54:21;;;;;;;5.20;4.13;;;;;;;12.30;100.00;98131.78;6271187;22;20153;-56
2022/05/03 03:56:47;;;;;;;3.83;3.53;;;;;;;12.40;100.00;98130.13;6271209;22;20500;-55
2022/05/03 03:59:14;;;;;;;5.93;4.15;;;;;;;12.38;100.00;98137.22;6271513;22;20502;-56
2022/05/03 04:01:40;;;;;;;4.82;4.05;;;;;;;12.16;100.00;98132.09;6269435;22;20180;-56
2022/05/03 04:04:08;;;;;;;4.55;4.15;;;;;;;12.21;100.00;98133.38;6261833;22;20163;-56
2022/05/03 04:06:34;;;;;;;5.30;4.03;;;;;;;11.98;100.00;98133.53;6258128;22;20847;-56
2022/05/03 04:08:59;;;;;;;4.07;3.67;;;;;;;11.78;100.00;98136.88;6262733;22;20153;-55
2022/05/03 04:11:27;;;;;;;3.75;3.40;;;;;;;11.97;100.00;98131.91;6271346;22;20602;-56
2022/05/03 04:13:53;;;;;;;4.82;4.43;;;;;;;11.56;100.00;98137.66;6271342;22;20232;-56
2022/05/03 04:16:19;;;;;;;5.90;4.63;;;;;;;11.47;100.00;98133.19;6270795;22;20195;-55
2022/05/03 04:18:44;;;;;;;4.47;3.90;;;;;;;11.42;100.00;98132.72;6271129;22;20148;-55
2022/05/03 04:21:17;;;;;;;4.32;3.92;;;;;;;11.49;100.00;98136.47;6271026;22;20598;-56
2022/05/03 04:23:44;;;;;;;5.75;4.57;;;;;;;11.70;100.00;98144.41;6270543;22;20153;-55
2022/05/03 04:26:10;;;;;;;5.75;4.55;;;;;;;11.66;100.00;98145.56;6256964;22;20667;-56
2022/05/03 04:28:36;;;;;;;7.45;5.22;;;;;;;11.54;100.00;98146.47;6258736;22;20557;-55
2022/05/03 04:31:02;;;;;;;10.00;5.97;;;;;;;11.35;100.00;98143.66;6267127;22;20152;-55
2022/05/03 04:33:27;;;;;;;5.60;5.10;;;;;;;11.42;100.00;98148.25;6270650;22;20202;-55
2022/05/03 04:35:52;;;;;;;4.82;4.32;;;;;;;11.33;100.00;98142.94;6270787;22;20514;-55
2022/05/03 04:38:18;;;;;;;4.25;3.80;;;;;;;11.36;100.00;98145.28;6270936;22;20223;-56
2022/05/03 04:40:43;;;;;;;4.40;4.00;;;;;;;11.27;100.00;98156.34;6270983;22;20148;-55
2022/05/03 04:43:10;;;;;;;4.93;4.43;;;;;;;10.94;100.00;98154.53;6271177;22;20463;-55
2022/05/03 04:45:35;;;;;;;5.18;4.78;;;;;;;10.97;100.00;98156.06;6264899;22;20408;-56
2022/05/03 04:48:01;;;;;;;8.63;4.88;;;;;;;11.06;100.00;98153.63;6257183;22;20152;-55
2022/05/03 04:50:26;;;;;;;4.38;4.07;;;;;;;11.37;100.00;98162.50;6259745;22;20222;-58
2022/05/03 04:52:52;;;;;;;4.32;3.67;;;;;;;11.67;100.00;98162.78;6269988;22;20552;-55
2022/05/03 04:55:17;;;;;;;5.57;3.70;;;;;;;11.84;100.00;98164.91;6270641;22;20152;-55
2022/05/03 04:57:42;;;;;;;5.93;3.80;;;;;;;11.98;100.00;98175.03;6270832;22;20149;-56
2022/05/03 05:00:09;;;;;;;3.20;3.00;;;;;;;12.07;100.00;98174.31;6270368;22;20149;-56
2022/05/03 05:02:34;;;;;;;7.05;3.70;;;;;;;12.09;100.00;98169.81;6270769;22;20161;-55
2022/05/03 05:05:00;;;;;;;4.15;3.63;;;;;;;12.10;100.00;98180.09;6270134;22;20231;-55
2022/05/03 05:07:25;;;;;;;4.35;3.60;;;;;;;12.08;100.00;98176.78;6259841;22;20309;-56
2022/05/03 05:12:34;;;;;;;5.82;3.58;;;;;;;12.10;100.00;98172.31;6264475;22;20140;-55
2022/05/03 05:15:00;;;;;;;4.05;3.53;;;;;;;12.12;100.00;98178.19;6270396;22;20152;-55
2022/05/03 05:17:25;;;;;;;3.35;3.05;;;;;;;12.11;100.00;98173.94;6270464;22;20175;-55
2022/05/03 05:19:51;;;;;;;3.13;2.92;;;;;;;12.17;100.00;98177.81;6270195;22;20176;-55
2022/05/03 05:22:16;;;;;;;3.40;3.08;;;;;;;12.15;100.00;98172.78;6270567;22;20148;-55
2022/05/03 05:24:41;;;;;;;3.20;2.53;;;;;;;12.26;100.00;98180.50;6270444;22;20183;-55
2022/05/03 05:27:07;;;;;;;3.67;3.38;;;;;;;12.14;100.00;98181.47;6267869;22;20287;-56
2022/05/03 05:29:34;;;;;;;3.65;3.45;;;;;;;12.14;100.00;98178.06;6256436;22;20645;-55
2022/05/03 05:31:59;;;;;;;4.13;3.38;;;;;;;12.15;100.00;98179.72;6259391;22;20206;-55
2022/05/03 05:34:24;;;;;;;3.53;3.22;;;;;;;12.12;100.00;98187.72;6267288;22;20536;-55
2022/05/03 05:36:50;;;;;;;4.03;3.63;;;;;;;11.76;100.00;98180.22;6270235;22;20591;-56
2022/05/03 05:39:15;;;;;;;4.20;3.90;;;;;;;11.53;100.00;98188.88;6270280;22;20594;-56
2022/05/03 05:41:41;;;;;;;5.20;4.07;;;;;;;11.37;100.00;98184.03;6270626;22;20144;-56
2022/05/03 05:44:06;;;;;;;6.03;4.07;;;;;;;11.11;100.00;98180.00;6268650;22;20508;-55
2022/05/03 05:46:31;;;;;;;4.95;4.38;;;;;;;10.90;100.00;98189.31;6270305;22;20271;-55
2022/05/03 05:48:57;;;;;;;4.38;4.07;;;;;;;10.82;100.00;98185.66;6262937;22;20232;-55
2022/05/03 05:51:22;;;;;;;4.22;3.92;;;;;;;10.91;100.00;98190.16;6256807;22;20617;-55
2022/05/03 05:53:48;;;;;;;3.40;3.10;;;;;;;11.17;100.00;98184.72;6259060;22;20151;-55
2022/05/03 05:56:14;;;;;;;3.88;3.58;;;;;;;11.22;100.00;98195.56;6270221;22;20274;-55
2022/05/03 05:58:40;;;;;;;5.25;3.55;;;;;;;11.24;100.00;98198.84;6270253;22;20152;-55
2022/05/03 06:01:05;;;;;;;4.20;3.90;;;;;;;11.22;100.00;98200.75;6269495;22;20160;-55
2022/05/03 06:03:32;;;;;;;4.35;3.53;;;;;;;11.21;100.00;98198.25;6269697;22;20149;-56
2022/05/03 06:05:59;;;;;;;4.47;3.90;;;;;;;10.93;100.00;98203.81;6269489;22;20701;-55
2022/05/03 06:08:25;;;;;;;6.18;4.50;;;;;;;11.04;100.00;98196.09;6269876;22;20227;-55
2022/05/03 06:10:50;;;;;;;5.10;4.60;;;;;;;11.00;100.00;98205.84;6257650;22;20176;-56
2022/05/03 06:13:17;;;;;;;5.28;4.85;;;;;;;10.89;100.00;98195.44;6257399;22;20145;-56
2022/05/03 06:15:42;;;;;;;3.75;3.40;;;;;;;10.58;100.00;98205.53;6261692;22;20184;-55
2022/05/03 06:18:09;;;;;;;3.47;3.28;;;;;;;10.40;100.00;98204.25;6269713;22;20178;-56
2022/05/03 06:20:36;;;;;;;3.88;3.50;;;;;;;10.53;100.00;98202.44;6268131;22;20159;-55
2022/05/03 06:23:02;;;;;;;3.35;3.10;;;;;;;10.71;100.00;98203.72;6269916;22;20194;-55
2022/05/03 06:25:28;;;;;;;4.63;4.18;;;;;;;10.73;100.00;98212.22;6267941;22;20153;-55
2022/05/03 06:27:53;;;;;;;4.35;3.85;;;;;;;10.98;100.00;98212.88;6267895;22;20156;-55
2022/05/03 06:30:19;;;;;;;5.30;3.97;;;;;;;11.01;100.00;98214.41;6266128;22;20153;-56
2022/05/03 06:32:45;;;;;;;7.60;5.65;;;;;;;10.96;100.00;98217.34;6256361;22;20397;-55
2022/05/03 06:35:14;;;;;;;7.03;5.20;;;;;;;10.96;100.00;98219.09;6258138;22;20502;-55
2022/05/03 06:37:42;;;;;;;7.60;6.28;;;;;;;11.06;100.00;98217.50;6267443;22;20179;-55
2022/05/03 06:40:09;;;;;;;4.65;4.22;;;;;;;11.01;100.00;98215.25;6270054;22;20225;-55
2022/05/03 06:42:39;;;;;;;4.25;3.45;;;;;;;10.91;100.00;98223.81;6269976;22;20185;-55
2022/05/03 06:45:06;;;;;;;4.15;3.78;;;;;;;10.76;100.00;98228.34;6269624;22;20148;-56
2022/05/03 06:47:32;;;;;;;3.80;3.50;;;;;;;10.82;100.00;98229.66;6269690;22;20186;-56
2022/05/03 06:49:57;;;;;;;7.63;4.30;;;;;;;10.77;100.00;98231.72;6269284;22;20176;-55
2022/05/03 06:52:23;;;;;;;3.72;3.40;;;;;;;10.75;100.00;98231.84;6259318;22;20156;-58
2022/05/03 06:54:49;;;;;;;3.15;2.95;;;;;;;10.80;100.00;98234.13;6256985;22;20153;-56
2022/05/03 06:57:15;;;;;;;4.10;3.80;;;;;;;10.65;100.00;98235.19;6261106;22;20148;-55
2022/05/03 06:59:40;;;;;;;4.18;3.75;;;;;;;10.39;100.00;98242.22;6269177;22;20553;-55
2022/05/03 07:02:06;;;;;;;3.92;3.72;;;;;;;10.28;100.00;98238.75;6269214;22;20207;-55
2022/05/03 07:04:31;;;;;;;5.68;4.05;;;;;;;10.45;100.00;98246.16;6269371;22;20594;-55
2022/05/03 07:06:57;;;;;;;2.97;2.78;;;;;;;10.57;100.00;98243.50;6269490;22;20648;-55
2022/05/03 07:09:22;;;;;;;3.42;3.20;;;;;;;10.55;100.00;98249.72;6269282;22;20210;-55
2022/05/03 07:11:48;;;;;;;2.90;2.70;;;;;;;10.75;100.00;98249.16;6269470;22;20152;-55
2022/05/03 07:14:15;;;;;;;2.97;2.78;;;;;;;10.86;100.00;98249.19;6255086;22;20149;-55
2022/05/03 07:16:41;;;;;;;2.33;2.22;;;;;;;10.87;100.00;98243.09;6255471;22;20184;-56
2022/05/03 07:24:34;;;;;;;3.50;1.67;;;;;;;11.18;100.00;98234.72;6269337;22;20601;-56
2022/05/03 07:26:59;;;;;;;2.10;1.95;;;;;;;11.30;100.00;98233.81;6269015;22;20176;-55
2022/05/03 07:29:26;;;;;;;2.65;2.45;;;;;;;11.40;100.00;98232.19;6269066;22;20649;-56
2022/05/03 07:31:53;;;;;;;4.90;3.55;;;;;;;11.47;100.00;98228.19;6269668;22;20230;-55
2022/05/03 07:34:18;;;;;;;3.58;3.25;;;;;;;11.57;100.00;98237.78;6260755;22;20156;-56
2022/05/03 07:36:44;;;;;;;5.97;4.32;;;;;;;11.62;100.00;98234.88;6256702;22;20522;-56
2022/05/03 07:39:10;;;;;;;4.80;3.22;;;;;;;11.71;100.00;98231.56;6259847;22;20148;-56
2022/05/03 07:41:36;;;;;;;5.68;5.05;;;;;;;11.88;100.00;98228.53;6269879;22;20159;-56
2022/05/03 07:44:02;;;;;;;4.63;4.03;;;;;;;11.88;100.00;98226.75;6269489;22;20156;-56
2022/05/03 07:46:27;;;;;;;5.68;5.07;;;;;;;11.99;100.00;98228.53;6269104;22;20929;-56
2022/05/03 07:48:54;;;;;;;4.95;3.95;;;;;;;12.09;100.00;98229.47;6269002;22;20151;-56
2022/05/03 07:51:21;;;;;;;3.80;3.50;;;;;;;12.31;100.00;98230.28;6268788;22;20155;-56
2022/05/03 07:53:46;;;;;;;4.20;3.90;;;;;;;12.48;100.00;98236.75;6269293;22;20167;-56
2022/05/03 07:56:12;;;;;;;4.53;4.13;;;;;;;12.63;100.00;98225.13;6256280;22;20556;-56
2022/05/03 07:58:37;;;;;;;1.88;1.80;;;;;;;12.62;100.00;98233.88;6256957;22;20602;-56
2022/05/03 08:01:04;;;;;;;2.10;2.00;;;;;;;12.62;100.00;98224.31;6263508;22;20590;-56
2022/05/03 08:03:30;;;;;;;2.20;2.10;;;;;;;12.75;100.00;98234.53;6269347;22;20171;-56
2022/05/03 08:05:55;;;;;;;2.50;2.40;;;;;;;12.84;100.00;98224.25;6268960;22;20705;-56
2022/05/03 08:08:21;;;;;;;2.58;2.38;;;;;;;12.92;100.00;98227.06;6269007;22;20145;-56
2022/05/03 08:10:47;;;;;;;2.70;2.50;;;;;;;12.77;100.00;98230.88;6269551;22;20148;-56
2022/05/03 08:13:12;;;;;;;1.98;1.85;;;;;;;12.77;100.00;98228.28;6269381;22;20160;-56
2022/05/03 08:15:39;;;;;;;2.28;2.17;;;;;;;12.80;100.00;98238.44;6265441;22;20200;-56
2022/05/03 08:18:05;;;;;;;2.60;2.40;;;;;;;12.81;100.00;98236.63;6253690;22;20148;-56
2022/05/03 08:20:31;;;;;;;3.08;2.88;;;;;;;12.85;100.00;98235.47;6257969;22;20149;-56
2022/05/03 08:22:56;;;;;;;2.40;2.00;;;;;;;12.77;100.00;98235.25;6265278;22;20205;-56
2022/05/03 08:25:22;;;;;;;2.35;2.22;;;;;;;12.99;100.00;98240.38;6269192;22;20228;-57
2022/05/03 08:27:47;;;;;;;1.90;1.80;;;;;;;13.15;100.00;98236.44;6266988;22;20683;-56
2022/05/03 08:30:13;;;;;;;2.83;2.10;;;;;;;13.20;100.00;98242.09;6269174;22;20566;-56
2022/05/03 08:32:38;;;;;;;2.95;2.75;;;;;;;13.25;100.00;98237.31;6269075;22;20145;-56
2022/05/03 08:35:04;;;;;;;3.65;3.20;;;;;;;13.40;100.00;98240.44;6268984;22;20152;-56
2022/05/03 08:43:01;;;;;;;5.20;2.90;;;;;;;13.66;100.00;98249.50;6264572;22;20621;-56
2022/05/03 08:45:26;;;;;;;3.80;3.15;;;;;;;13.76;100.00;98258.19;6271172;22;20156;-56
2022/05/03 08:47:56;;;;;;;3.50;3.20;;;;;;;13.70;100.00;98258.72;6270911;22;20243;-56
2022/05/03 08:50:22;;;;;;;3.95;3.55;;;;;;;13.77;100.00;98259.84;6270811;22;20219;-56
2022/05/03 08:52:59;;;;;;;5.78;5.15;;;;;;;13.73;100.00;98268.84;6270804;22;20621;-56
2022/05/03 08:55:25;;;;;;;6.95;6.25;;;;;;;13.83;100.00;98267.13;6270805;22;20137;-56
2022/05/03 08:57:50;;;;;;;3.58;3.28;;;;;;;13.85;100.00;98266.03;6266250;22;20617;-57
2022/05/03 09:00:17;;;;;;;3.85;3.50;;;;;;;13.77;100.00;98270.25;6256992;22;20155;-56
2022/05/03 09:02:51;;;;;;;5.95;5.45;;;;;;;13.77;100.00;98265.03;6259610;22;20148;-56
2022/05/03 09:05:18;;;;;;;7.20;5.70;;;;;;;13.72;100.00;98262.00;6267100;22;20160;-57
2022/05/03 09:07:56;;;;;;;4.82;4.43;;;;;;;13.80;100.00;98260.41;6270473;22;20176;-56
2022/05/03 09:10:24;;;;;;;3.40;3.20;;;;;;;13.93;100.00;98270.63;6270540;22;20603;-56
2022/05/03 09:12:50;;;;;;;2.60;2.40;;;;;;;14.00;100.00;98275.16;6270763;22;20198;-56
2022/05/03 09:15:36;;;;;;;2.97;2.78;;;;;;;14.06;100.00;98273.81;6270273;22;20167;-56
2022/05/03 09:18:02;;;;;;;3.20;2.90;;;;;;;13.97;100.00;98270.22;6267639;22;20202;-57
2022/05/03 09:26:15;;;;;;;3.42;2.75;;;;;;;14.00;100.00;98271.75;6268719;22;20172;-56
2022/05/03 09:28:44;;;;;;;3.25;3.05;;;;;;;13.99;100.00;98262.28;6270672;22;20148;-56
2022/05/03 09:31:10;;;;;;;3.85;3.08;;;;;;;13.98;100.00;98263.22;6270439;22;20210;-56
2022/05/03 09:33:37;;;;;;;5.30;4.90;;;;;;;14.08;100.00;98269.28;6270517;22;20527;-57
2022/05/03 09:36:12;;;;;;;6.70;4.38;;;;;;;14.16;100.00;98267.69;6270216;22;20148;-56
2022/05/03 09:38:45;;;;;;;6.45;5.80;;;;;;;14.18;100.00;98268.38;6268827;22;20155;-56
2022/05/03 09:41:14;;;;;;;5.05;4.20;;;;;;;14.15;100.00;98263.44;6256145;22;20156;-56
2022/05/03 09:44:01;;;;;;;2.90;2.70;;;;;;;14.08;100.00;98264.09;6256120;22;20161;-56
2022/05/03 09:46:30;;;;;;;6.75;6.03;;;;;;;13.98;100.00;98269.25;6265650;22;20259;-56
2022/05/03 09:48:56;;;;;;;3.90;3.00;;;;;;;13.91;100.00;98267.28;6270733;22;20161;-56
2022/05/03 09:51:23;;;;;;;5.35;4.20;;;;;;;13.89;100.00;98270.00;6269752;22;20558;-56
2022/05/03 09:53:56;;;;;;;4.65;3.63;;;;;;;13.80;100.00;98267.38;6270595;22;20183;-56
2022/05/03 09:56:25;;;;;;;7.10;6.28;;;;;;;13.79;100.00;98265.72;6267341;22;20144;-56
2022/05/03 09:58:56;;;;;;;5.80;5.22;;;;;;;13.84;100.00;98277.41;6269840;22;20149;-56
2022/05/03 10:01:22;;;;;;;6.05;5.45;;;;;;;13.85;100.00;98271.25;6261852;22;20441;-56
2022/05/03 10:03:49;;;;;;;7.38;5.78;;;;;;;13.82;100.00;98275.88;6256817;22;20472;-56
2022/05/03 10:06:15;;;;;;;5.28;4.53;;;;;;;13.84;100.00;98279.16;6260446;22;20244;-56
2022/05/03 10:08:41;;;;;;;5.82;5.32;;;;;;;13.79;100.00;98274.38;6270258;22;20148;-56
2022/05/03 10:11:07;;;;;;;4.13;3.78;;;;;;;13.76;100.00;98269.41;6269514;22;20239;-56
2022/05/03 10:13:33;;;;;;;5.07;4.68;;;;;;;13.79;100.00;98276.97;6270068;22;20246;-56
2022/05/03 10:21:34;;;;;;;6.05;5.22;;;;;;;13.58;100.00;98272.69;6266583;22;20274;-56
2022/05/03 10:24:06;;;;;;;4.75;4.35;;;;;;;13.50;100.00;98275.13;6256557;22;20153;-56
2022/05/03 10:27:05;;;;;;;6.97;4.72;;;;;;;13.54;100.00;98269.53;6258661;22;20176;-56
2022/05/03 10:29:36;;;;;;;5.65;4.03;;;;;;;13.53;100.00;98275.69;6269721;22;20164;-56
2022/05/03 10:32:22;;;;;;;6.82;4.72;;;;;;;13.57;100.00;98271.06;6269833;22;20459;-56
2022/05/03 10:34:53;;;;;;;4.88;4.47;;;;;;;13.71;100.00;98273.34;6269658;22;20160;-56
2022/05/03 10:37:28;;;;;;;7.95;6.20;;;;;;;13.73;100.00;98276.63;6269702;22;20132;-56
2022/05/03 10:39:59;;;;;;;13.65;7.40;;;;;;;13.83;100.00;98273.13;6269934;22;20148;-56
2022/05/03 10:42:27;;;;;;;11.73;8.90;;;;;;;13.87;100.00;98271.09;6268116;22;20132;-56
2022/05/03 10:44:52;;;;;;;10.45;7.63;;;;;;;13.91;100.00;98272.50;6255843;22;20717;-56
2022/05/03 10:47:38;;;;;;;24.90;13.27;;;;;;;13.82;100.00;98265.47;6255925;22;20320;-56
2022/05/03 10:50:15;;;;;;;13.57;10.88;;;;;;;13.93;100.00;98270.63;6267781;22;20300;-56
2022/05/03 10:53:01;;;;;;;7.93;6.78;;;;;;;13.98;100.00;98261.44;6269847;22;20243;-56
2022/05/03 10:55:35;;;;;;;5.93;5.05;;;;;;;14.10;100.00;98260.41;6269620;22;20533;-56
2022/05/03 10:58:20;;;;;;;7.25;6.13;;;;;;;14.18;100.00;98264.97;6269638;22;20183;-56
2022/05/03 11:01:23;;;;;;;5.63;4.75;;;;;;;14.30;100.00;98256.94;6269359;22;20235;-56
2022/05/03 11:03:51;;;;;;;7.65;6.93;;;;;;;14.40;100.00;98252.59;6255204;22;20214;-56
2022/05/03 11:06:17;;;;;;;7.30;5.63;;;;;;;14.47;100.00;98252.91;6255788;22;20177;-56
2022/05/03 11:08:57;;;;;;;5.22;4.72;;;;;;;14.60;100.00;98248.28;6258104;22;20540;-56
2022/05/03 11:11:44;;;;;;;5.15;4.40;;;;;;;14.72;100.00;98247.19;6268937;22;20222;-56
2022/05/03 11:14:24;;;;;;;6.00;4.80;;;;;;;15.01;100.00;98245.47;6269684;22;20140;-56
2022/05/03 11:17:04;;;;;;;5.10;4.47;;;;;;;15.28;100.00;98241.19;6269102;22;20176;-56
2022/05/03 11:19:40;;;;;;;4.88;4.38;;;;;;;15.52;100.00;98243.41;6268256;22;20148;-56
2022/05/03 11:22:12;;;;;;;4.38;3.97;;;;;;;15.69;100.00;98245.31;6269455;22;20163;-56
2022/05/03 11:24:43;;;;;;;6.35;4.65;;;;;;;15.75;100.00;98242.94;6266680;22;20155;-56
2022/05/03 11:27:10;;;;;;;6.35;4.22;;;;;;;15.84;98.13;98238.66;6255430;22;20664;-56
2022/05/03 11:29:38;;;;;;;3.90;3.60;;;;;;;15.94;95.38;98239.47;6257685;22;20383;-57
2022/05/03 11:32:07;;;;;;;4.30;3.90;;;;;;;15.99;95.90;98237.25;6267668;22;20513;-56
2022/05/03 11:34:34;;;;;;;4.07;3.78;;;;;;;16.06;94.62;98235.72;6267525;22;20163;-57
2022/05/03 11:37:01;;;;;;;4.00;3.65;;;;;;;16.04;91.22;98235.03;6269594;22;20171;-56
2022/05/03 11:39:27;;;;;;;6.90;4.65;;;;;;;16.01;93.50;98230.09;6269190;22;20159;-56
2022/05/03 11:41:53;;;;;;;5.53;5.07;;;;;;;16.10;90.99;98232.66;6269234;22;20157;-56
2022/05/03 11:44:19;;;;;;;3.55;3.25;;;;;;;16.07;91.89;98229.53;6268481;22;20181;-56
2022/05/03 11:46:48;;;;;;;6.57;5.18;;;;;;;16.22;89.46;98228.09;6259670;22;20212;-56
2022/05/03 11:49:15;;;;;;;3.70;3.40;;;;;;;16.21;91.39;98227.25;6256710;22;20489;-56
2022/05/03 11:57:19;;;;;;;3.70;3.40;;;;;;;16.57;87.43;98226.41;6269293;22;20194;-56
2022/05/03 11:59:45;;;;;;;3.10;2.90;;;;;;;16.68;86.24;98225.41;6269429;22;20148;-57
2022/05/03 12:02:18;;;;;;;2.53;2.42;;;;;;;16.64;82.87;98229.28;6269045;22;20159;-56
2022/05/03 12:05:06;;;;;;;3.13;2.50;;;;;;;16.53;82.44;98232.09;6268744;22;20144;-56
2022/05/03 12:07:39;;;;;;;2.40;2.30;;;;;;;16.06;85.31;98223.50;6261476;22;20209;-56
2022/05/03 12:10:43;;;;;;;3.03;2.83;;;;;;;16.16;88.31;98215.63;6256211;22;20149;-56
2022/05/03 12:13:12;;;;;;;4.05;2.42;;;;;;;16.20;85.00;98219.59;6173212;23;20582;-56
2022/05/03 12:15:57;;;;;;;2.60;2.40;;;;;;;16.20;86.19;98214.38;6207038;23;20194;-56
2022/05/03 12:18:30;;;;;;;3.67;3.40;;;;;;;16.31;80.80;98222.81;6246763;22;20164;-56
2022/05/03 12:20:57;;;;;;;5.22;4.72;;;;;;;16.32;78.88;98221.84;6271017;22;20136;-56